createdAt,value
2018-10-17T00:01:39.497Z,14.30
2018-10-17T00:04:07.665Z,14.03
2018-10-17T00:06:37.532Z,13.50
2018-10-17T00:09:07.072Z,13.17
2018-10-17T00:11:35.161Z,12.97
2018-10-17T00:14:03.332Z,13.70
2018-10-17T00:16:31.428Z,12.00
2018-10-17T00:18:59.617Z,13.60
2018-10-17T00:21:27.860Z,12.80
2018-10-17T00:23:55.945Z,14.23
2018-10-17T00:26:24.032Z,14.53
2018-10-17T00:28:52.211Z,14.10
2018-10-17T00:31:20.485Z,13.33
2018-10-17T00:33:48.612Z,13.83
2018-10-17T00:36:16.713Z,12.60
2018-10-17T00:38:44.793Z,14.03
2018-10-17T00:41:12.920Z,12.90
2018-10-17T00:43:41.139Z,13.57
2018-10-17T00:46:09.748Z,13.10
2018-10-17T00:48:37.805Z,12.60
2018-10-17T00:51:06.256Z,12.67
2018-10-17T00:53:34.376Z,13.37
2018-10-17T00:56:02.508Z,12.93
2018-10-17T00:58:30.797Z,14.47
2018-10-17T01:00:58.941Z,12.63
2018-10-17T01:03:27.252Z,14.33
2018-10-17T01:05:55.477Z,12.97
2018-10-17T01:08:23.546Z,13.13
2018-10-17T01:10:51.630Z,13.13
2018-10-17T01:13:20.042Z,14.23
2018-10-17T01:15:48.277Z,13.57
2018-10-17T01:18:16.409Z,13.53
2018-10-17T01:20:44.508Z,13.77
2018-10-17T01:23:12.686Z,12.47
2018-10-17T01:25:40.937Z,13.70
2018-10-17T01:28:09.417Z,12.10
2018-10-17T01:30:37.516Z,13.33
2018-10-17T01:33:05.603Z,14.10
2018-10-17T01:35:33.645Z,14.03
2018-10-17T01:38:01.728Z,15.30
2018-10-17T01:40:29.911Z,14.07
2018-10-17T01:42:58.060Z,13.40
2018-10-17T01:45:26.361Z,14.43
2018-10-17T01:47:54.521Z,14.00
2018-10-17T01:50:22.577Z,14.17
2018-10-17T01:52:50.658Z,14.30
2018-10-17T01:55:19.019Z,14.37
2018-10-17T01:57:47.064Z,13.10
2018-10-17T02:00:15.249Z,14.70
2018-10-17T02:02:43.317Z,13.93
2018-10-17T02:05:11.559Z,13.90
2018-10-17T02:07:39.755Z,15.80
2018-10-17T02:10:07.878Z,17.40
2018-10-17T02:12:35.944Z,16.57
2018-10-17T02:15:04.054Z,15.33
2018-10-17T02:17:32.120Z,15.53
2018-10-17T02:20:00.203Z,14.47
2018-10-17T02:22:28.956Z,16.20
2018-10-17T02:24:57.043Z,14.60
2018-10-17T02:27:25.309Z,15.67
2018-10-17T02:29:53.424Z,16.07
2018-10-17T02:32:21.688Z,15.13
2018-10-17T02:34:55.329Z,15.80
2018-10-17T02:37:23.570Z,15.90
2018-10-17T02:39:51.741Z,15.60
2018-10-17T02:42:19.821Z,13.73
2018-10-17T02:44:47.879Z,14.23
2018-10-17T02:47:16.005Z,14.47
2018-10-17T02:49:44.253Z,14.80
2018-10-17T02:52:12.310Z,14.97
2018-10-17T02:54:40.392Z,13.70
2018-10-17T02:57:08.441Z,15.60
2018-10-17T02:59:36.530Z,15.40
2018-10-17T03:02:05.020Z,16.33
2018-10-17T03:04:33.277Z,15.40
2018-10-17T03:07:01.405Z,16.00
2018-10-17T03:09:29.629Z,14.43
2018-10-17T03:11:57.789Z,15.07
2018-10-17T03:14:25.994Z,13.97
2018-10-17T03:16:54.132Z,15.53
2018-10-17T03:19:22.458Z,16.00
2018-10-17T03:21:50.739Z,17.30
2018-10-17T03:24:18.861Z,16.80
2018-10-17T03:26:46.946Z,15.80
2018-10-17T03:29:15.124Z,15.20
2018-10-17T03:31:43.345Z,15.87
2018-10-17T03:34:11.496Z,15.20
2018-10-17T03:36:39.556Z,16.07
2018-10-17T03:39:08.833Z,15.30
2018-10-17T03:41:37.034Z,14.97
2018-10-17T03:44:05.301Z,14.47
2018-10-17T03:46:33.443Z,15.77
2018-10-17T03:49:01.614Z,15.30
2018-10-17T03:51:29.829Z,15.50
2018-10-17T03:53:58.314Z,15.10
2018-10-17T03:56:26.396Z,16.40
2018-10-17T03:58:54.552Z,14.70
2018-10-17T04:01:22.764Z,14.93
2018-10-17T04:03:50.894Z,15.03
2018-10-17T04:06:19.278Z,14.43
2018-10-17T04:08:47.358Z,15.93
2018-10-17T04:11:15.463Z,14.83
2018-10-17T04:13:43.728Z,14.97
2018-10-17T04:16:11.920Z,16.50
2018-10-17T04:18:40.356Z,16.47
2018-10-17T04:21:08.486Z,16.60
2018-10-17T04:23:36.866Z,15.20
2018-10-17T04:26:05.014Z,15.87
2018-10-17T04:28:33.074Z,14.60
2018-10-17T04:31:01.167Z,15.30
2018-10-17T04:33:29.426Z,16.23
2018-10-17T04:35:57.553Z,15.30
2018-10-17T04:38:25.854Z,16.30
2018-10-17T04:40:54.109Z,14.43
2018-10-17T04:43:22.329Z,15.60
2018-10-17T04:45:50.401Z,16.70
2018-10-17T04:48:19.217Z,15.90
2018-10-17T04:50:47.349Z,17.70
2018-10-17T04:53:15.733Z,16.57
2018-10-17T04:55:44.888Z,16.87
2018-10-17T04:58:14.227Z,17.03
2018-10-17T05:00:43.030Z,16.73
2018-10-17T05:03:12.026Z,15.33
2018-10-17T05:05:40.993Z,15.53
2018-10-17T05:08:10.106Z,16.97
2018-10-17T05:10:39.124Z,16.10
2018-10-17T05:13:07.444Z,16.50
2018-10-17T05:15:35.655Z,16.50
2018-10-17T05:18:03.725Z,16.50
2018-10-17T05:20:31.772Z,17.27
2018-10-17T05:22:59.859Z,17.17
2018-10-17T05:25:28.160Z,17.40
2018-10-17T05:27:56.276Z,17.70
2018-10-17T05:30:24.765Z,15.97
2018-10-17T05:32:52.917Z,16.20
2018-10-17T05:35:20.985Z,17.53
2018-10-17T05:37:49.274Z,17.57
2018-10-17T05:40:17.461Z,16.60
2018-10-17T05:42:45.548Z,17.80
2018-10-17T05:45:13.610Z,15.57
2018-10-17T05:47:41.693Z,18.30
2018-10-17T05:50:09.753Z,16.40
2018-10-17T05:52:37.823Z,15.90
2018-10-17T05:55:06.422Z,16.10
2018-10-17T05:57:34.642Z,15.73
2018-10-17T06:00:02.712Z,15.80
2018-10-17T06:02:33.139Z,15.10
2018-10-17T06:05:01.607Z,14.60
2018-10-17T06:07:29.914Z,15.80
2018-10-17T06:09:58.009Z,15.67
2018-10-17T06:12:26.093Z,16.90
2018-10-17T06:14:54.364Z,15.30
2018-10-17T06:17:22.487Z,15.73
2018-10-17T06:19:50.997Z,16.70
2018-10-17T06:22:19.082Z,16.33
2018-10-17T06:24:47.164Z,16.20
2018-10-17T06:27:15.265Z,16.40
2018-10-17T06:29:43.327Z,16.53
2018-10-17T06:32:11.393Z,17.00
2018-10-17T06:34:39.496Z,16.20
2018-10-17T06:37:08.074Z,16.90
2018-10-17T06:39:36.312Z,17.50
2018-10-17T06:42:05.093Z,17.13
2018-10-17T06:44:33.304Z,16.37
2018-10-17T06:47:01.561Z,16.17
2018-10-17T06:49:29.720Z,16.27
2018-10-17T06:51:57.820Z,16.47
2018-10-17T06:54:26.121Z,17.27
2018-10-17T06:56:54.434Z,16.50
2018-10-17T06:59:22.526Z,17.83
2018-10-17T07:01:50.814Z,17.20
2018-10-17T07:04:18.977Z,19.10
2018-10-17T07:06:47.038Z,19.10
2018-10-17T07:09:15.147Z,20.60
2018-10-17T07:11:43.413Z,19.77
2018-10-17T07:14:11.692Z,19.83
2018-10-17T07:16:39.781Z,19.50
2018-10-17T07:19:07.936Z,19.90
2018-10-17T07:21:36.221Z,19.17
2018-10-17T07:24:04.405Z,19.87
2018-10-17T07:26:32.664Z,18.60
2018-10-17T07:29:00.909Z,21.63
2018-10-17T07:31:29.213Z,19.87
2018-10-17T07:33:57.398Z,18.73
2018-10-17T07:36:25.447Z,20.03
2018-10-17T07:38:53.529Z,18.83
2018-10-17T07:41:21.661Z,19.60
2018-10-17T07:43:49.720Z,19.63
2018-10-17T07:46:17.909Z,20.07
2018-10-17T07:48:46.174Z,20.33
2018-10-17T07:51:14.449Z,21.47
2018-10-17T07:53:42.520Z,23.33
2018-10-17T07:56:10.591Z,21.97
2018-10-17T07:58:38.813Z,21.87
2018-10-17T08:01:06.920Z,19.77
2018-10-17T08:03:34.984Z,21.30
2018-10-17T08:06:03.091Z,20.47
2018-10-17T08:08:31.312Z,21.27
2018-10-17T08:10:59.401Z,20.90
2018-10-17T08:13:27.676Z,21.67
2018-10-17T08:15:56.182Z,20.27
2018-10-17T08:18:24.262Z,19.23
2018-10-17T08:20:52.323Z,21.13
2018-10-17T08:23:20.788Z,21.70
2018-10-17T08:25:48.874Z,21.20
2018-10-17T08:28:16.957Z,20.90
2018-10-17T08:30:45.025Z,21.03
2018-10-17T08:33:13.094Z,20.87
2018-10-17T08:35:41.245Z,20.57
2018-10-17T08:38:09.482Z,20.90
2018-10-17T08:40:37.844Z,21.83
2018-10-17T08:43:05.895Z,20.73
2018-10-17T08:45:34.084Z,21.87
2018-10-17T08:48:02.225Z,21.00
2018-10-17T08:50:30.517Z,21.10
2018-10-17T08:52:58.893Z,20.23
2018-10-17T08:55:26.988Z,19.53
2018-10-17T08:57:55.103Z,20.53
2018-10-17T09:00:23.712Z,21.17
2018-10-17T09:02:51.954Z,20.57
2018-10-17T09:05:20.110Z,20.67
2018-10-17T09:07:48.275Z,21.53
2018-10-17T09:10:16.728Z,20.40
2018-10-17T09:12:44.824Z,20.37
2018-10-17T09:15:12.880Z,22.47
2018-10-17T09:17:40.997Z,22.40
2018-10-17T09:20:09.828Z,21.30
2018-10-17T09:22:37.869Z,21.30
2018-10-17T09:25:06.747Z,21.23
2018-10-17T09:27:35.178Z,19.87
2018-10-17T09:30:03.471Z,20.30
2018-10-17T09:32:31.661Z,20.40
2018-10-17T09:34:59.883Z,20.53
2018-10-17T09:37:28.088Z,19.73
2018-10-17T09:39:56.276Z,19.70
2018-10-17T09:42:24.552Z,20.30
2018-10-17T09:44:52.597Z,21.23
2018-10-17T09:47:20.748Z,20.17
2018-10-17T09:49:48.928Z,20.57
2018-10-17T09:52:17.316Z,20.30
2018-10-17T09:54:45.634Z,19.93
2018-10-17T09:57:13.701Z,19.37
2018-10-17T09:59:41.880Z,18.20
2018-10-17T10:02:10.369Z,18.73
2018-10-17T10:04:38.581Z,16.53
2018-10-17T10:07:06.680Z,16.87
2018-10-17T10:09:34.820Z,16.97
2018-10-17T10:12:02.931Z,17.40
2018-10-17T10:14:31.643Z,15.83
2018-10-17T10:16:59.771Z,15.47
2018-10-17T10:19:28.059Z,15.60
2018-10-17T10:21:56.149Z,15.97
2018-10-17T10:24:24.385Z,14.60
2018-10-17T10:26:52.529Z,15.27
2018-10-17T10:29:20.607Z,14.30
2018-10-17T10:31:48.673Z,14.37
2018-10-17T10:34:16.868Z,12.90
2018-10-17T10:36:45.076Z,12.97
2018-10-17T10:39:13.421Z,13.77
2018-10-17T10:41:41.881Z,15.33
2018-10-17T10:44:10.083Z,12.37
2018-10-17T10:46:38.274Z,12.60
2018-10-17T10:49:06.569Z,12.40
2018-10-17T10:51:34.885Z,12.57
2018-10-17T10:54:03.116Z,12.40
2018-10-17T10:56:31.352Z,11.67
2018-10-17T10:58:59.493Z,12.30
2018-10-17T11:01:28.001Z,11.63
2018-10-17T11:03:56.072Z,12.87
2018-10-17T11:06:24.148Z,12.37
2018-10-17T11:08:52.264Z,11.30
2018-10-17T11:11:20.827Z,11.10
2018-10-17T11:13:49.113Z,10.97
2018-10-17T11:16:17.386Z,11.33
2018-10-17T11:18:45.473Z,11.77
2018-10-17T11:21:13.640Z,11.37
2018-10-17T11:23:41.898Z,10.50
2018-10-17T11:26:10.009Z,10.53
2018-10-17T11:28:38.116Z,10.07
2018-10-17T11:31:06.256Z,11.47
2018-10-17T11:33:34.337Z,10.10
2018-10-17T11:36:02.496Z,10.70
2018-10-17T11:38:30.620Z,8.80
2018-10-17T11:40:59.123Z,10.10
2018-10-17T11:43:27.393Z,9.40
2018-10-17T11:45:55.464Z,9.53
2018-10-17T11:48:23.557Z,9.77
2018-10-17T11:50:52.741Z,10.50
2018-10-17T11:53:21.218Z,9.80
2018-10-17T11:55:49.305Z,11.70
2018-10-17T11:58:17.477Z,10.67
2018-10-17T12:00:45.533Z,10.20
2018-10-17T12:03:13.747Z,11.87
2018-10-17T12:05:41.939Z,10.23
2018-10-17T12:08:10.145Z,11.07
2018-10-17T12:10:38.189Z,10.70
2018-10-17T12:13:06.245Z,11.80
2018-10-17T12:15:34.297Z,11.13
2018-10-17T12:18:02.454Z,12.53
2018-10-17T12:20:30.650Z,11.57
2018-10-17T12:22:58.785Z,10.47
2018-10-17T12:25:26.853Z,10.77
2018-10-17T12:27:54.969Z,9.87
2018-10-17T12:30:23.222Z,9.00
2018-10-17T12:32:51.306Z,10.17
2018-10-17T12:35:19.578Z,9.27
2018-10-17T12:37:47.779Z,8.57
2018-10-17T12:40:15.967Z,8.40
2018-10-17T12:42:44.133Z,8.03
2018-10-17T12:45:12.739Z,8.03
2018-10-17T12:47:41.017Z,7.50
2018-10-17T12:50:09.431Z,7.80
2018-10-17T12:52:37.735Z,7.37
2018-10-17T12:55:06.268Z,7.87
2018-10-17T12:57:34.460Z,8.77
2018-10-17T13:00:02.528Z,7.57
2018-10-17T13:02:31.027Z,7.57
2018-10-17T13:04:59.186Z,8.20
2018-10-17T13:07:27.442Z,7.50
2018-10-17T13:09:55.526Z,8.20
2018-10-17T13:12:23.711Z,7.03
2018-10-17T13:14:51.860Z,7.60
2018-10-17T13:17:20.107Z,9.53
2018-10-17T13:19:48.271Z,8.47
2018-10-17T13:22:16.562Z,9.43
2018-10-17T13:24:44.671Z,9.40
2018-10-17T13:27:12.904Z,9.13
2018-10-17T13:29:40.948Z,9.30
2018-10-17T13:32:09.024Z,8.40
2018-10-17T13:34:37.420Z,8.43
2018-10-17T13:37:05.674Z,8.70
2018-10-17T13:39:33.853Z,8.20
2018-10-17T13:42:02.030Z,8.10
2018-10-17T13:44:30.246Z,9.20
2018-10-17T13:46:58.350Z,8.27
2018-10-17T13:49:26.647Z,7.67
2018-10-17T13:51:54.911Z,7.30
2018-10-17T13:54:23.100Z,8.20
2018-10-17T13:56:51.210Z,6.90
2018-10-17T13:59:19.593Z,7.00
2018-10-17T14:01:47.862Z,8.10
2018-10-17T14:04:16.082Z,6.80
2018-10-17T14:06:44.259Z,6.70
2018-10-17T14:09:12.432Z,7.20
2018-10-17T14:11:40.709Z,7.00
2018-10-17T14:14:09.966Z,7.30
2018-10-17T14:16:38.012Z,6.80
2018-10-17T14:19:06.125Z,7.33
2018-10-17T14:21:34.214Z,6.30
2018-10-17T14:24:02.382Z,7.10
2018-10-17T14:26:30.747Z,6.90
2018-10-17T14:28:58.796Z,7.10
2018-10-17T14:31:26.877Z,6.73
2018-10-17T14:33:54.978Z,7.80
2018-10-17T14:36:23.156Z,7.30
2018-10-17T14:38:51.360Z,6.80
2018-10-17T14:41:19.765Z,7.53
2018-10-17T14:43:48.099Z,7.77
2018-10-17T14:46:16.447Z,6.80
2018-10-17T14:48:44.641Z,6.80
2018-10-17T14:51:12.808Z,7.33
2018-10-17T14:53:41.003Z,6.57
2018-10-17T14:56:09.083Z,6.83
2018-10-17T14:58:37.350Z,6.83
2018-10-17T15:01:05.434Z,6.87
2018-10-17T15:03:33.581Z,7.77
2018-10-17T15:06:01.660Z,6.90
2018-10-17T15:08:29.771Z,7.60
2018-10-17T15:10:58.060Z,8.10
2018-10-17T15:13:26.166Z,7.43
2018-10-17T15:15:54.288Z,7.50
2018-10-17T15:18:22.364Z,8.20
2018-10-17T15:20:50.532Z,7.90
2018-10-17T15:23:18.691Z,7.70
2018-10-17T15:25:46.810Z,7.87
2018-10-17T15:28:15.072Z,8.13
2018-10-17T15:30:43.514Z,8.80
2018-10-17T15:33:11.590Z,8.80
2018-10-17T15:35:39.877Z,8.77
2018-10-17T15:38:07.982Z,9.60
2018-10-17T15:40:36.062Z,8.27
2018-10-17T15:43:04.503Z,8.57
2018-10-17T15:45:32.762Z,8.80
2018-10-17T15:48:01.218Z,10.43
2018-10-17T15:50:29.629Z,8.90
2018-10-17T15:52:57.874Z,9.33
2018-10-17T15:55:26.117Z,8.80
2018-10-17T15:57:54.346Z,9.63
2018-10-17T16:00:22.476Z,9.67
2018-10-17T16:02:50.570Z,9.93
2018-10-17T16:05:18.685Z,10.17
2018-10-17T16:07:46.893Z,11.17
2018-10-17T16:10:14.991Z,10.67
2018-10-17T16:12:43.064Z,10.73
2018-10-17T16:15:11.254Z,11.33
2018-10-17T16:17:39.694Z,10.37
2018-10-17T16:20:09.438Z,11.10
2018-10-17T16:22:37.706Z,11.07
2018-10-17T16:25:06.378Z,11.20
2018-10-17T16:27:34.507Z,11.93
2018-10-17T16:30:02.780Z,10.87
2018-10-17T16:32:31.030Z,11.23
2018-10-17T16:34:59.159Z,10.17
2018-10-17T16:37:27.238Z,11.10
2018-10-17T16:39:55.342Z,11.80
2018-10-17T16:42:23.437Z,11.40
2018-10-17T16:44:51.544Z,10.57
2018-10-17T16:47:19.813Z,11.50
2018-10-17T16:49:47.962Z,11.20
2018-10-17T16:52:16.205Z,12.00
2018-10-17T16:54:44.282Z,11.70
2018-10-17T16:57:12.574Z,12.27
2018-10-17T16:59:40.827Z,14.23
2018-10-17T17:02:09.205Z,18.87
2018-10-17T17:04:37.418Z,16.83
2018-10-17T17:07:05.751Z,13.97
2018-10-17T17:09:33.982Z,12.77
2018-10-17T17:12:02.241Z,12.77
2018-10-17T17:14:30.440Z,11.60
2018-10-17T17:16:58.748Z,11.83
2018-10-17T17:19:26.852Z,11.17
2018-10-17T17:21:54.933Z,12.60
2018-10-17T17:24:23.052Z,13.20
2018-10-17T17:26:51.235Z,13.53
2018-10-17T17:29:19.545Z,12.80
2018-10-17T17:31:47.815Z,12.70
2018-10-17T17:34:15.943Z,11.47
2018-10-17T17:36:44.069Z,11.87
2018-10-17T17:39:12.167Z,11.40
2018-10-17T17:41:40.306Z,11.63
2018-10-17T17:44:08.443Z,12.40
2018-10-17T17:46:36.674Z,11.30
2018-10-17T17:49:05.341Z,11.97
2018-10-17T17:51:33.460Z,11.83
2018-10-17T17:54:01.585Z,11.10
2018-10-17T17:56:29.683Z,11.53
2018-10-17T17:58:57.921Z,11.90
2018-10-17T18:01:26.048Z,11.53
2018-10-17T18:03:54.217Z,11.90
2018-10-17T18:06:22.745Z,12.10
2018-10-17T18:08:50.979Z,11.87
2018-10-17T18:11:20.593Z,12.27
2018-10-17T18:13:48.953Z,11.83
2018-10-17T18:16:17.053Z,13.17
2018-10-17T18:18:45.322Z,12.70
2018-10-17T18:21:13.794Z,11.43
2018-10-17T18:23:42.193Z,13.80
2018-10-17T18:26:10.682Z,17.10
2018-10-17T18:28:38.977Z,12.80
2018-10-17T18:31:07.216Z,12.83
2018-10-17T18:33:35.350Z,14.50
2018-10-17T18:36:03.498Z,14.27
2018-10-17T18:38:31.723Z,14.47
2018-10-17T18:40:59.851Z,15.40
2018-10-17T18:43:28.304Z,16.53
2018-10-17T18:45:56.579Z,15.97
2018-10-17T18:48:25.085Z,23.33
2018-10-17T18:50:53.423Z,22.50
2018-10-17T18:53:21.733Z,16.73
2018-10-17T18:55:49.966Z,20.43
2018-10-17T18:58:18.258Z,21.90
2018-10-17T19:00:46.597Z,17.30
2018-10-17T19:03:14.795Z,15.97
2018-10-17T19:05:43.025Z,15.83
2018-10-17T19:08:11.269Z,19.20
2018-10-17T19:10:39.549Z,18.90
2018-10-17T19:13:07.785Z,17.37
2018-10-17T19:15:35.989Z,15.87
2018-10-17T19:18:04.133Z,15.10
2018-10-17T19:20:32.261Z,14.40
2018-10-17T19:23:00.565Z,14.77
2018-10-17T19:25:28.710Z,13.50
2018-10-17T19:27:57.270Z,13.30
2018-10-17T19:30:25.383Z,14.10
2018-10-17T19:32:53.672Z,13.60
2018-10-17T19:35:22.075Z,12.87
2018-10-17T19:37:50.218Z,13.30
2018-10-17T19:40:18.354Z,13.50
2018-10-17T19:42:46.446Z,13.57
2018-10-17T19:45:14.838Z,14.20
2018-10-17T19:47:43.098Z,12.67
2018-10-17T19:50:11.475Z,12.53
2018-10-17T19:52:39.781Z,12.87
2018-10-17T19:55:08.751Z,15.07
2018-10-17T19:57:36.877Z,14.93
2018-10-17T20:00:06.180Z,14.47
2018-10-17T20:02:34.292Z,14.13
2018-10-17T20:05:02.525Z,14.47
2018-10-17T20:07:30.774Z,16.33
2018-10-17T20:09:59.015Z,14.80
2018-10-17T20:12:27.121Z,15.10
2018-10-17T20:14:55.307Z,14.90
2018-10-17T20:17:23.568Z,16.13
2018-10-17T20:19:51.760Z,15.40
2018-10-17T20:22:19.817Z,16.30
2018-10-17T20:24:48.041Z,15.70
2018-10-17T20:27:16.261Z,15.43
2018-10-17T20:29:44.539Z,15.50
2018-10-17T20:32:12.810Z,16.27
2018-10-17T20:34:40.905Z,16.47
2018-10-17T20:37:09.154Z,16.50
2018-10-17T20:39:37.246Z,16.80
2018-10-17T20:42:05.651Z,15.97
2018-10-17T20:44:33.920Z,18.00
2018-10-17T20:47:02.138Z,18.03
2018-10-17T20:49:30.261Z,18.30
2018-10-17T20:51:58.408Z,18.83
2018-10-17T20:54:26.525Z,18.10
2018-10-17T20:56:54.731Z,19.93
2018-10-17T20:59:22.806Z,18.43
2018-10-17T21:01:50.997Z,17.30
2018-10-17T21:04:19.305Z,19.17
2018-10-17T21:06:47.394Z,21.20
2018-10-17T21:09:15.670Z,25.27
2018-10-17T21:11:43.880Z,17.50
2018-10-17T21:14:12.256Z,17.90
2018-10-17T21:16:41.521Z,17.33
2018-10-17T21:19:09.873Z,17.10
2018-10-17T21:21:37.945Z,18.20
2018-10-17T21:24:06.200Z,18.50
2018-10-17T21:26:34.328Z,17.93
2018-10-17T21:29:02.612Z,18.03
2018-10-17T21:31:30.857Z,17.37
2018-10-17T21:33:59.000Z,18.50
2018-10-17T21:36:27.157Z,18.80
2018-10-17T21:38:55.361Z,18.00
2018-10-17T21:41:23.446Z,20.80
2018-10-17T21:43:51.535Z,17.93
2018-10-17T21:46:20.245Z,18.70
2018-10-17T21:48:48.481Z,18.00
2018-10-17T21:51:16.677Z,18.93
2018-10-17T21:53:44.783Z,18.67
2018-10-17T21:56:13.131Z,19.13
2018-10-17T21:58:41.281Z,18.87
2018-10-17T22:01:09.360Z,18.60
2018-10-17T22:03:37.436Z,17.90
2018-10-17T22:06:05.502Z,18.60
2018-10-17T22:08:33.613Z,18.67
2018-10-17T22:11:01.759Z,19.10
2018-10-17T22:13:29.834Z,18.43
2018-10-17T22:15:57.917Z,18.07
2018-10-17T22:18:26.000Z,18.53
2018-10-17T22:20:54.084Z,18.60
2018-10-17T22:23:22.157Z,19.10
2018-10-17T22:25:50.241Z,18.77
2018-10-17T22:28:18.368Z,18.30
2018-10-17T22:30:46.445Z,19.00
2018-10-17T22:33:14.521Z,19.20
2018-10-17T22:35:42.577Z,18.40
2018-10-17T22:38:10.689Z,18.07
2018-10-17T22:40:38.979Z,18.20
2018-10-17T22:43:07.329Z,18.70
2018-10-17T22:45:35.422Z,18.10
2018-10-17T22:48:03.558Z,20.83
2018-10-17T22:50:31.748Z,18.53
2018-10-17T22:52:59.842Z,19.03
2018-10-17T22:55:27.916Z,18.70
2018-10-17T22:57:56.017Z,18.30
2018-10-17T23:00:24.077Z,19.30
2018-10-17T23:02:52.148Z,19.10
2018-10-17T23:05:20.264Z,17.50
2018-10-17T23:07:48.368Z,17.37
2018-10-17T23:10:16.548Z,19.03
2018-10-17T23:12:44.805Z,19.50
2018-10-17T23:15:14.533Z,19.20
2018-10-17T23:17:42.628Z,19.43
2018-10-17T23:20:11.177Z,18.07
2018-10-17T23:22:40.594Z,18.63
2018-10-17T23:25:10.178Z,19.57
2018-10-17T23:27:38.496Z,19.07
2018-10-17T23:30:07.369Z,19.60
2018-10-17T23:32:35.476Z,17.97
2018-10-17T23:35:03.607Z,19.33
2018-10-17T23:37:31.792Z,19.43
2018-10-17T23:39:59.981Z,18.20
2018-10-17T23:42:28.088Z,18.77
2018-10-17T23:44:56.328Z,18.30
2018-10-17T23:47:24.552Z,20.03
2018-10-17T23:49:52.716Z,20.03
2018-10-17T23:52:20.961Z,19.10
2018-10-17T23:54:49.145Z,18.80
2018-10-17T23:57:17.210Z,19.10
2018-10-17T23:59:45.287Z,18.70
